| time (UTC) | temp F | wind direction | speed MPH | gust MPH | rain 1hr in | rain 24hr in | rain mn in | humidity % | barometer mb |
| 20260503214343 | 61 | 352 | 4.0 | 9.0 | 0.00 | 0.00 | 0.00 | 30 | 1013.7 |
| 20260503213825 | 62 | 257 | 5.0 | 9.0 | 0.00 | 0.00 | 0.00 | 28 | 1013.7 |
| 20260503213307 | 62 | 202 | 2.0 | 10.0 | 0.00 | 0.00 | 0.00 | 28 | 1013.7 |
| 20260503212808 | 62 | 291 | 2.0 | 10.0 | 0.00 | 0.00 | 0.00 | 31 | 1013.8 |
| 20260503212308 | 61 | 258 | 3.0 | 12.0 | 0.00 | 0.00 | 0.00 | 29 | 1013.8 |
| 20260503211808 | 62 | 276 | 3.0 | 6.0 | 0.00 | 0.00 | 0.00 | 29 | 1013.8 |
| 20260503210817 | 61 | 210 | 3.0 | 9.0 | 0.00 | 0.00 | 0.00 | 30 | 1014.0 |
| 20260503210318 | 61 | 257 | 5.0 | 9.0 | 0.00 | 0.00 | 0.00 | 31 | 1013.9 |
| 20260503205839 | 61 | 287 | 4.0 | 10.0 | 0.00 | 0.00 | 0.00 | 32 | 1014.0 |
| 20260503205320 | 61 | 275 | 4.0 | 12.0 | 0.00 | 0.00 | 0.00 | 30 | 1013.9 |
| 20260503204842 | 60 | 309 | 6.0 | 13.0 | 0.00 | 0.00 | 0.00 | 30 | 1014.0 |
| 20260503204321 | 61 | 290 | 7.0 | 13.0 | 0.00 | 0.00 | 0.00 | 31 | 1014.1 |
| 20260503203825 | 60 | 262 | 3.0 | 9.0 | 0.00 | 0.00 | 0.00 | 30 | 1014.1 |
| 20260503203325 | 60 | 292 | 4.0 | 14.0 | 0.00 | 0.00 | 0.00 | 29 | 1014.1 |
| 20260503202809 | 60 | 224 | 7.0 | 14.0 | 0.00 | 0.00 | 0.00 | 29 | 1014.1 |
| 20260503202331 | 61 | 259 | 5.0 | 11.0 | 0.00 | 0.00 | 0.00 | 32 | 1014.3 |
| 20260503201832 | 60 | 286 | 3.0 | 9.0 | 0.00 | 0.00 | 0.00 | 30 | 1014.4 |
| 20260503201332 | 60 | 90 | 3.0 | 9.0 | 0.00 | 0.00 | 0.00 | 30 | 1014.4 |
| 20260503200814 | 60 | 214 | 3.0 | 7.0 | 0.00 | 0.00 | 0.00 | 30 | 1014.5 |
| 20260503200335 | 60 | 207 | 4.0 | 8.0 | 0.00 | 0.00 | 0.00 | 30 | 1014.5 |
| 20260503195806 | 60 | 114 | 1.0 | 8.0 | 0.00 | 0.00 | 0.00 | 31 | 1014.6 |
| 20260503195307 | 60 | 276 | 4.0 | 15.0 | 0.00 | 0.00 | 0.00 | 33 | 1014.6 |
| 20260503194810 | 60 | 288 | 4.0 | 15.0 | 0.00 | 0.00 | 0.00 | 33 | 1014.8 |
| 20260503194310 | 59 | 114 | 5.0 | 10.0 | 0.00 | 0.00 | 0.00 | 31 | 1014.7 |
| 20260503193812 | 59 | 209 | 3.0 | 16.0 | 0.00 | 0.00 | 0.00 | 32 | 1014.8 |
| 20260503193315 | 59 | 249 | 10.0 | 16.0 | 0.00 | 0.00 | 0.00 | 30 | 1015.1 |
| 20260503192837 | 59 | 123 | 3.0 | 12.0 | 0.00 | 0.00 | 0.00 | 32 | 1015.1 |
| 20260503192318 | 59 | 298 | 2.0 | 12.0 | 0.00 | 0.00 | 0.00 | 31 | 1015.2 |
| 20260503191820 | 59 | 286 | 4.0 | 9.0 | 0.00 | 0.00 | 0.00 | 35 | 1015.2 |
| 20260503191323 | 58 | 278 | 5.0 | 11.0 | 0.00 | 0.00 | 0.00 | 30 | 1015.2 |
| 20260503190825 | 58 | 340 | 6.0 | 13.0 | 0.00 | 0.00 | 0.00 | 32 | 1015.3 |
| 20260503190328 | 59 | 269 | 7.0 | 13.0 | 0.00 | 0.00 | 0.00 | 33 | 1015.3 |
| 20260503185816 | 58 | 250 | 3.0 | 8.0 | 0.00 | 0.00 | 0.00 | 35 | 1015.3 |
| 20260503185317 | 58 | 51 | 5.0 | 11.0 | 0.00 | 0.00 | 0.00 | 32 | 1015.4 |
| 20260503184820 | 57 | 359 | 5.0 | 18.0 | 0.00 | 0.00 | 0.00 | 33 | 1015.6 |
| 20260503184320 | 57 | 267 | 9.0 | 18.0 | 0.00 | 0.00 | 0.00 | 32 | 1015.7 |
| 20260503183823 | 58 | 281 | 6.0 | 13.0 | 0.00 | 0.00 | 0.00 | 36 | 1015.8 |
| 20260503183323 | 58 | 23 | 5.0 | 11.0 | 0.00 | 0.00 | 0.00 | 34 | 1016.0 |
| 20260503182825 | 59 | 280 | 4.0 | 14.0 | 0.00 | 0.00 | 0.00 | 38 | 1015.9 |
| 20260503182307 | 58 | 1 | 8.0 | 14.0 | 0.00 | 0.00 | 0.00 | 38 | 1016.0 |
| 20260503181830 | 57 | 269 | 4.0 | 6.0 | 0.00 | 0.00 | 0.00 | 33 | 1015.9 |
| 20260503181310 | 57 | 249 | 3.0 | 11.0 | 0.00 | 0.00 | 0.00 | 33 | 1016.0 |
| 20260503180811 | 56 | 248 | 4.0 | 15.0 | 0.00 | 0.00 | 0.00 | 40 | 1016.0 |
| 20260503180314 | 56 | 221 | 8.0 | 15.0 | 0.00 | 0.00 | 0.00 | 36 | 1016.0 |
| 20260503175832 | 56 | 295 | 5.0 | 13.0 | 0.00 | 0.00 | 0.00 | 37 | 1016.0 |
| 20260503175312 | 57 | 229 | 5.0 | 11.0 | 0.00 | 0.00 | 0.00 | 33 | 1016.1 |
| 20260503174812 | 56 | 271 | 5.0 | 11.0 | 0.00 | 0.00 | 0.00 | 37 | 1016.0 |
| 20260503174315 | 56 | 25 | 2.0 | 16.0 | 0.00 | 0.00 | 0.00 | 37 | 1016.1 |
| 20260503173817 | 56 | 269 | 8.0 | 16.0 | 0.00 | 0.00 | 0.00 | 36 | 1016.2 |
| 20260503173320 | 55 | 295 | 4.0 | 13.0 | 0.00 | 0.00 | 0.00 | 37 | 1016.1 |
| 20260503172821 | 56 | 254 | 8.0 | 13.0 | 0.00 | 0.00 | 0.00 | 35 | 1016.1 |
| 20260503172322 | 55 | 258 | 4.0 | 11.0 | 0.00 | 0.00 | 0.00 | 38 | 1016.1 |
| 20260503171824 | 55 | 279 | 5.0 | 11.0 | 0.00 | 0.00 | 0.00 | 40 | 1016.2 |
| 20260503171326 | 54 | 293 | 3.0 | 10.0 | 0.00 | 0.00 | 0.00 | 41 | 1016.2 |
| 20260503170809 | 55 | 272 | 6.0 | 14.0 | 0.00 | 0.00 | 0.00 | 39 | 1016.3 |
| 20260503170313 | 55 | 257 | 6.0 | 10.0 | 0.00 | 0.00 | 0.00 | 39 | 1016.4 |
| 20260503150824 | 50 | 288 | 4.0 | 8.0 | 0.00 | 0.00 | 0.00 | 47 | 1017.7 |
| 20260503150325 | 49 | 219 | 1.0 | 11.0 | 0.00 | 0.00 | 0.00 | 46 | 1017.7 |
| 20260503140315 | 46 | 255 | 7.0 | 13.0 | 0.00 | 0.00 | 0.00 | 49 | 1017.8 |
| 20260503131313 | 43 | 295 | 3.0 | 13.0 | 0.00 | 0.00 | 0.00 | 53 | 1017.7 |
| 20260503130814 | 43 | 332 | 2.0 | 13.0 | 0.00 | 0.00 | 0.00 | 54 | 1017.6 |
| 20260503130316 | 43 | 272 | 4.0 | 9.0 | 0.00 | 0.00 | 0.00 | 56 | 1017.7 |
| 20260503110322 | 32 | 337 | 0.0 | 3.0 | 0.00 | 0.00 | 0.00 | 86 | 1016.9 |
| 20260503090310 | 35 | 288 | 1.0 | 3.0 | 0.00 | 0.00 | 0.00 | 78 | 1015.1 |
| 20260503081339 | 33 | 156 | 0.0 | 0.0 | 0.00 | 0.00 | 0.00 | 85 | 1014.8 |
| 20260503080841 | 33 | 125 | 0.0 | 0.0 | 0.00 | 0.00 | 0.00 | 86 | 1014.7 |
| 20260503080321 | 34 | 78 | 0.0 | 0.0 | 0.00 | 0.00 | 0.00 | 86 | 1014.6 |
| 20260503072822 | 34 | 335 | 2.0 | 3.0 | 0.00 | 0.00 | 0.00 | 86 | 1014.5 |
| 20260503072323 | 35 | 349 | 1.0 | 3.0 | 0.00 | 0.00 | 0.00 | 85 | 1014.4 |
| 20260503071827 | 35 | 110 | 0.0 | 2.0 | 0.00 | 0.00 | 0.00 | 84 | 1014.3 |
| 20260503071328 | 36 | 81 | 0.0 | 2.0 | 0.00 | 0.00 | 0.00 | 83 | 1014.3 |
| 20260503070850 | 36 | 37 | 1.0 | 3.0 | 0.00 | 0.00 | 0.00 | 81 | 1014.2 |
| 20260503070329 | 37 | 307 | 1.0 | 11.0 | 0.00 | 0.00 | 0.00 | 79 | 1014.1 |
| 20260503054826 | 35 | 3 | 0.0 | 2.0 | 0.00 | 0.00 | 0.00 | 88 | 1014.3 |
| 20260503054327 | 35 | 352 | 0.0 | 1.0 | 0.00 | 0.00 | 0.00 | 87 | 1014.3 |
| 20260503053830 | 35 | 291 | 0.0 | 1.0 | 0.00 | 0.00 | 0.00 | 87 | 1014.3 |
| 20260503053311 | 34 | 153 | 1.0 | 2.0 | 0.00 | 0.00 | 0.00 | 87 | 1014.3 |
| 20260503052813 | 34 | 39 | 1.0 | 3.0 | 0.00 | 0.00 | 0.00 | 86 | 1014.4 |
| 20260503052317 | 35 | 41 | 3.0 | 3.0 | 0.00 | 0.00 | 0.00 | 85 | 1014.4 |
| 20260503051839 | 35 | 212 | 0.0 | 2.0 | 0.00 | 0.00 | 0.00 | 84 | 1014.4 |
| 20260503051320 | 35 | 155 | 0.0 | 3.0 | 0.00 | 0.00 | 0.00 | 84 | 1014.4 |
| 20260503050824 | 35 | 268 | 1.0 | 3.0 | 0.00 | 0.00 | 0.00 | 84 | 1014.4 |
| 20260503050325 | 35 | 246 | 0.0 | 3.0 | 0.00 | 0.00 | 0.00 | 85 | 1014.3 |
| 20260503045844 | 35 | 283 | 1.0 | 5.0 | 0.00 | 0.00 | 0.00 | 85 | 1014.3 |
| 20260503045326 | 34 | 262 | 3.0 | 5.0 | 0.00 | 0.00 | 0.00 | 87 | 1014.3 |
| 20260503044827 | 34 | 249 | 0.0 | 3.0 | 0.00 | 0.00 | 0.00 | 86 | 1014.3 |
| 20260503044328 | 35 | 296 | 1.0 | 3.0 | 0.00 | 0.00 | 0.00 | 86 | 1014.3 |
| 20260503043829 | 35 | 231 | 0.0 | 0.0 | 0.00 | 0.00 | 0.00 | 85 | 1014.3 |
| 20260503043311 | 35 | 309 | 0.0 | 4.0 | 0.00 | 0.00 | 0.00 | 85 | 1014.3 |
| 20260503042815 | 35 | 309 | 2.0 | 4.0 | 0.00 | 0.00 | 0.00 | 84 | 1014.3 |
| 20260503042315 | 35 | 103 | 0.0 | 1.0 | 0.00 | 0.00 | 0.00 | 84 | 1014.1 |
| 20260503041818 | 36 | 100 | 0.0 | 1.0 | 0.00 | 0.00 | 0.00 | 82 | 1014.2 |
| 20260503041318 | 37 | 128 | 0.0 | 1.0 | 0.00 | 0.00 | 0.00 | 80 | 1014.2 |
| 20260503040841 | 37 | 128 | 0.0 | 2.0 | 0.00 | 0.00 | 0.00 | 80 | 1014.2 |
| 20260503040323 | 37 | 298 | 0.0 | 2.0 | 0.00 | 0.00 | 0.00 | 80 | 1014.2 |
| 20260503035835 | 37 | 110 | 0.0 | 3.0 | 0.00 | 0.00 | 0.00 | 79 | 1014.1 |
| 20260503035317 | 37 | 281 | 1.0 | 4.0 | 0.00 | 0.00 | 0.00 | 78 | 1014.1 |
| 20260503034839 | 37 | 248 | 2.0 | 4.0 | 0.00 | 0.00 | 0.00 | 79 | 1014.3 |
| 20260503034319 | 37 | 256 | 2.0 | 4.0 | 0.00 | 0.00 | 0.00 | 77 | 1014.2 |
| 20260503033822 | 37 | 297 | 1.0 | 5.0 | 0.00 | 0.00 | 0.00 | 78 | 1014.3 |
| 20260503033324 | 37 | 297 | 3.0 | 5.0 | 0.00 | 0.00 | 0.00 | 78 | 1014.2 |
| 20260503032846 | 37 | 264 | 3.0 | 4.0 | 0.00 | 0.00 | 0.00 | 78 | 1014.3 |
| 20260503032348 | 37 | 252 | 1.0 | 4.0 | 0.00 | 0.00 | 0.00 | 77 | 1014.2 |
| 20260503031828 | 37 | 258 | 2.0 | 3.0 | 0.00 | 0.00 | 0.00 | 78 | 1014.1 |
| 20260503031329 | 38 | 285 | 1.0 | 4.0 | 0.00 | 0.00 | 0.00 | 77 | 1014.0 |
| 20260503030830 | 38 | 244 | 2.0 | 4.0 | 0.00 | 0.00 | 0.00 | 77 | 1014.0 |
| 20260503030331 | 38 | 302 | 2.0 | 3.0 | 0.00 | 0.00 | 0.00 | 75 | 1014.0 |
| 20260503025829 | 38 | 250 | 1.0 | 3.0 | 0.00 | 0.00 | 0.00 | 75 | 1014.0 |
| 20260503025330 | 39 | 277 | 2.0 | 4.0 | 0.00 | 0.00 | 0.00 | 74 | 1014.0 |
| 20260503024811 | 39 | 269 | 2.0 | 4.0 | 0.00 | 0.00 | 0.00 | 73 | 1014.0 |
| 20260503024315 | 39 | 269 | 2.0 | 4.0 | 0.00 | 0.00 | 0.00 | 72 | 1014.0 |
| 20260503023816 | 40 | 233 | 2.0 | 4.0 | 0.00 | 0.00 | 0.00 | 71 | 1014.1 |
| 20260503023318 | 40 | 265 | 2.0 | 4.0 | 0.00 | 0.00 | 0.00 | 72 | 1014.1 |
| 20260503022820 | 40 | 251 | 1.0 | 3.0 | 0.00 | 0.00 | 0.00 | 72 | 1014.2 |
| 20260503022322 | 40 | 270 | 2.0 | 5.0 | 0.00 | 0.00 | 0.00 | 71 | 1014.1 |
| 20260503021824 | 40 | 270 | 2.0 | 5.0 | 0.00 | 0.00 | 0.00 | 69 | 1014.0 |
| 20260503021325 | 40 | 264 | 2.0 | 4.0 | 0.00 | 0.00 | 0.00 | 71 | 1014.0 |
| 20260503020827 | 40 | 250 | 2.0 | 3.0 | 0.00 | 0.00 | 0.00 | 69 | 1014.0 |
| 20260503020328 | 41 | 277 | 1.0 | 3.0 | 0.00 | 0.00 | 0.00 | 68 | 1013.9 |
| 20260503015829 | 41 | 290 | 2.0 | 3.0 | 0.00 | 0.00 | 0.00 | 67 | 1013.8 |
| 20260503015330 | 42 | 297 | 2.0 | 4.0 | 0.00 | 0.00 | 0.00 | 68 | 1013.8 |
| 20260503014830 | 43 | 295 | 1.0 | 4.0 | 0.00 | 0.00 | 0.00 | 64 | 1013.8 |
| 20260503014313 | 44 | 295 | 2.0 | 8.0 | 0.00 | 0.00 | 0.00 | 60 | 1013.8 |
| 20260503013813 | 44 | 285 | 2.0 | 8.0 | 0.00 | 0.00 | 0.00 | 60 | 1013.7 |
| 20260503013315 | 44 | 271 | 3.0 | 4.0 | 0.00 | 0.00 | 0.00 | 59 | 1013.7 |
| 20260503012817 | 44 | 293 | 3.0 | 4.0 | 0.00 | 0.00 | 0.00 | 58 | 1013.7 |
| 20260503012322 | 44 | 281 | 2.0 | 5.0 | 0.00 | 0.00 | 0.00 | 58 | 1013.6 |
| 20260503011821 | 44 | 274 | 3.0 | 5.0 | 0.00 | 0.00 | 0.00 | 58 | 1013.7 |
| 20260503011322 | 44 | 267 | 2.0 | 4.0 | 0.00 | 0.00 | 0.00 | 59 | 1013.7 |
| 20260503010844 | 45 | 251 | 1.0 | 3.0 | 0.00 | 0.00 | 0.00 | 58 | 1013.5 |
| 20260503010345 | 45 | 273 | 1.0 | 4.0 | 0.00 | 0.00 | 0.00 | 57 | 1013.5 |
| 20260503005804 | 46 | 285 | 2.0 | 7.0 | 0.00 | 0.00 | 0.00 | 56 | 1013.4 |
| 20260503005327 | 46 | 267 | 2.0 | 7.0 | 0.00 | 0.00 | 0.00 | 54 | 1013.3 |
| 20260503004809 | 46 | 278 | 2.0 | 6.0 | 0.00 | 0.00 | 0.00 | 54 | 1013.2 |
| 20260503004312 | 46 | 283 | 2.0 | 6.0 | 0.00 | 0.00 | 0.00 | 54 | 1013.2 |
| 20260503003814 | 47 | 290 | 1.0 | 5.0 | 0.00 | 0.00 | 0.00 | 53 | 1013.1 |
| 20260503003337 | 47 | 269 | 2.0 | 5.0 | 0.00 | 0.00 | 0.00 | 51 | 1013.0 |
| 20260503002818 | 47 | 260 | 1.0 | 5.0 | 0.00 | 0.00 | 0.00 | 50 | 1013.0 |
| 20260503002321 | 48 | 276 | 3.0 | 5.0 | 0.00 | 0.00 | 0.00 | 50 | 1012.9 |
| 20260503001823 | 48 | 291 | 1.0 | 4.0 | 0.00 | 0.00 | 0.00 | 49 | 1012.9 |
| 20260503001323 | 48 | 281 | 1.0 | 7.0 | 0.00 | 0.00 | 0.00 | 49 | 1012.8 |
| 20260503000806 | 49 | 299 | 3.0 | 7.0 | 0.00 | 0.00 | 0.00 | 48 | 1012.7 |
| 20260503000307 | 49 | 262 | 1.0 | 5.0 | 0.00 | 0.00 | 0.00 | 48 | 1012.6 |
| 20260502235825 | 49 | 271 | 1.0 | 5.0 | 0.00 | 0.00 | 0.00 | 47 | 1012.6 |
| 20260502235327 | 49 | 261 | 2.0 | 3.0 | 0.00 | 0.00 | 0.00 | 47 | 1012.6 |
| 20260502234808 | 49 | 281 | 1.0 | 6.0 | 0.00 | 0.00 | 0.00 | 49 | 1012.5 |
| 20260502234309 | 49 | 253 | 2.0 | 6.0 | 0.00 | 0.00 | 0.00 | 47 | 1012.4 |
| 20260502233832 | 50 | 300 | 2.0 | 4.0 | 0.00 | 0.00 | 0.00 | 49 | 1012.4 |
| 20260502233313 | 50 | 295 | 2.0 | 5.0 | 0.00 | 0.00 | 0.00 | 49 | 1012.3 |
| 20260502232835 | 50 | 293 | 2.0 | 5.0 | 0.00 | 0.00 | 0.00 | 49 | 1012.3 |
| 20260502232333 | 50 | 286 | 2.0 | 9.0 | 0.00 | 0.00 | 0.00 | 48 | 1012.2 |
| 20260502231817 | 51 | 300 | 4.0 | 9.0 | 0.00 | 0.00 | 0.00 | 47 | 1012.1 |
| 20260502231338 | 51 | 270 | 3.0 | 12.0 | 0.00 | 0.00 | 0.00 | 46 | 1012.1 |
| 20260502230820 | 52 | 283 | 6.0 | 12.0 | 0.00 | 0.00 | 0.00 | 45 | 1012.1 |
| 20260502230323 | 52 | 293 | 5.0 | 8.0 | 0.00 | 0.00 | 0.00 | 44 | 1012.1 |
| 20260502225833 | 52 | 315 | 5.0 | 10.0 | 0.00 | 0.00 | 0.00 | 45 | 1012.0 |
| 20260502225325 | 52 | 280 | 4.0 | 12.0 | 0.00 | 0.00 | 0.00 | 44 | 1012.0 |
| 20260502224826 | 53 | 280 | 4.0 | 14.0 | 0.00 | 0.00 | 0.00 | 46 | 1012.0 |
| 20260502224323 | 53 | 277 | 5.0 | 14.0 | 0.00 | 0.00 | 0.00 | 45 | 1012.0 |
| 20260502223806 | 53 | 262 | 6.0 | 12.0 | 0.00 | 0.00 | 0.00 | 44 | 1011.9 |
| 20260502223307 | 53 | 259 | 7.0 | 16.0 | 0.00 | 0.00 | 0.00 | 42 | 1011.8 |
| 20260502222808 | 53 | 279 | 8.0 | 16.0 | 0.00 | 0.00 | 0.00 | 44 | 1011.8 |
| 20260502222311 | 53 | 270 | 7.0 | 14.0 | 0.00 | 0.00 | 0.00 | 44 | 1011.8 |
| 20260502221812 | 54 | 6 | 7.0 | 14.0 | 0.00 | 0.00 | 0.00 | 43 | 1011.8 |
| 20260502221313 | 54 | 298 | 5.0 | 14.0 | 0.00 | 0.00 | 0.00 | 45 | 1011.7 |
| 20260502220817 | 54 | 279 | 6.0 | 11.0 | 0.00 | 0.00 | 0.00 | 42 | 1011.7 |
| 20260502220338 | 54 | 301 | 6.0 | 15.0 | 0.00 | 0.00 | 0.00 | 43 | 1011.6 |
| 20260502215815 | 54 | 227 | 8.0 | 11.0 | 0.00 | 0.00 | 0.00 | 43 | 1011.6 |
| 20260502215316 | 55 | 267 | 5.0 | 16.0 | 0.00 | 0.00 | 0.00 | 46 | 1011.5 |
| 20260502214818 | 54 | 311 | 9.0 | 16.0 | 0.00 | 0.00 | 0.00 | 43 | 1011.5 |